»·PEaware :: GAF101 YBAS-YBCS

GAF101 :: YBAS-YBCS

FLIGHT INFORMATION

Flight Status: Arrived
Operator:
German Airforce
More flights by this operator :: More flights under this callsign
Pilot: Charles S. (11412)
Aircraft: AIRBUS A320
(A320)
More flights by this aircraft type
Origin: YBAS Alice Springs
Australia
Destination: YBCS Cairns Intl
Australia
More flights between these airports :: More routes between these airports
Route: GAFER3 GAFER J64 NONUM NONUM3A
File this flight plan on PilotEdge
Remarks:
Altitude:
(Current/Filed)
35,000ft
Speed:
(Current/Filed)
400kts
Departed: 07-Jun-20 09:01 PM
Arrived: 07-Jun-20 10:57 PM
Distance/Time
Traveled:
785nm/1:55
Distance/Time
To Go:
Arrived

Flight Plot

Page will automatically refresh every two minutes.

Flight plan parsing failed; only flown route is shown


Map Options




Map Legend


Flown Route
Filed Route
Departure Airport
Arrival Airport
Navaid (VOR, NDB)
Fix

Horizontal Profiles

Position Reports

Time Latitude Longitude Heading Altitude Ground
Speed
07-Jun-20 20:45 -23.803068 133.901799 60 1795ft 0kts
07-Jun-20 20:47 -23.803068 133.901799 60 1795ft 0kts
07-Jun-20 20:47 -23.803068 133.901799 60 1795ft 0kts
07-Jun-20 20:48 -23.803068 133.901799 60 1795ft 0kts
07-Jun-20 20:49 -23.803068 133.901799 60 1795ft 0kts
07-Jun-20 20:50 -23.803068 133.901799 60 1795ft 0kts
07-Jun-20 20:51 -23.803068 133.901799 60 1795ft 0kts
07-Jun-20 20:52 -23.803068 133.901799 60 1795ft 0kts
07-Jun-20 20:53 -23.803068 133.901799 60 1795ft 0kts
07-Jun-20 20:54 -23.803068 133.901799 60 1795ft 0kts
07-Jun-20 20:55 -23.803068 133.901799 60 1795ft 0kts
07-Jun-20 20:56 -23.803068 133.901799 60 1795ft 0kts
07-Jun-20 20:57 -23.804060 133.900409 211 1794ft 12kts
07-Jun-20 20:58 -23.801726 133.894613 297 1798ft 33kts
07-Jun-20 20:59 -23.801917 133.894998 119 1797ft 0kts
07-Jun-20 21:00 -23.815640 133.927685 71 3349ft 148kts
07-Jun-20 21:01 -23.777474 133.961568 34 5457ft 223kts
07-Jun-20 21:02 -23.722798 134.010581 57 8104ft 282kts
07-Jun-20 21:03 -23.681981 134.087864 58 11030ft 315kts
07-Jun-20 21:04 -23.634607 134.177289 58 13402ft 354kts
07-Jun-20 21:05 -23.584098 134.272332 57 15960ft 373kts
07-Jun-20 21:06 -23.531056 134.371944 57 18280ft 390kts
07-Jun-20 21:07 -23.475495 134.476073 56 20398ft 405kts
07-Jun-20 21:08 -23.417934 134.583726 55 22326ft 419kts
07-Jun-20 21:09 -23.358362 134.694900 54 24094ft 432kts
07-Jun-20 21:10 -23.297098 134.808974 53 25676ft 443kts
07-Jun-20 21:11 -23.234329 134.925600 53 27219ft 451kts
07-Jun-20 21:12 -23.182812 135.021118 52 28559ft 452kts
07-Jun-20 21:13 -23.130108 135.118621 51 29701ft 456kts
07-Jun-20 21:14 -23.065228 135.238386 51 30703ft 467kts
07-Jun-20 21:15 -23.000550 135.357523 51 31540ft 479kts
07-Jun-20 21:16 -22.930010 135.487178 51 32658ft 484kts
07-Jun-20 21:17 -22.861336 135.613081 51 33905ft 484kts
07-Jun-20 21:18 -22.792193 135.739512 50 35141ft 480kts
07-Jun-20 21:19 -22.723520 135.864762 50 35251ft 478kts
07-Jun-20 21:20 -22.654960 135.989510 50 35253ft 480kts
07-Jun-20 21:21 -22.586188 136.114353 50 35252ft 479kts
07-Jun-20 21:22 -22.517658 136.238455 50 35252ft 479kts
07-Jun-20 21:23 -22.448667 136.363094 50 35253ft 480kts
07-Jun-20 21:24 -22.379856 136.487113 50 35256ft 480kts
07-Jun-20 21:25 -22.310810 136.611263 50 35236ft 480kts
07-Jun-20 21:26 -22.241784 136.735037 50 35173ft 479kts
07-Jun-20 21:27 -22.173309 136.857496 50 35122ft 478kts
07-Jun-20 21:28 -22.104513 136.980245 50 35115ft 479kts
07-Jun-20 21:29 -22.035315 137.103443 51 35138ft 482kts
07-Jun-20 21:30 -21.965740 137.226969 51 35166ft 484kts
07-Jun-20 21:31 -21.895784 137.350852 51 35173ft 484kts
07-Jun-20 21:32 -21.825733 137.474724 51 35169ft 485kts
07-Jun-20 21:33 -21.755659 137.598341 51 35163ft 485kts
07-Jun-20 21:34 -21.685548 137.721729 50 35147ft 483kts
07-Jun-20 21:35 -21.615591 137.844549 50 35120ft 481kts
07-Jun-20 21:36 -21.545506 137.967249 50 35116ft 481kts
07-Jun-20 21:37 -21.475835 138.088896 50 35130ft 482kts
07-Jun-20 21:38 -21.405370 138.211660 50 35146ft 482kts
07-Jun-20 21:39 -21.335056 138.333890 50 35155ft 483kts
07-Jun-20 21:40 -21.264650 138.456012 50 35157ft 483kts
07-Jun-20 21:41 -21.194025 138.578243 50 35152ft 483kts
07-Jun-20 21:42 -21.123063 138.700791 50 35147ft 482kts
07-Jun-20 21:43 -21.052824 138.821817 50 35136ft 480kts
07-Jun-20 21:44 -20.982345 138.942998 50 35141ft 478kts
07-Jun-20 21:45 -20.912178 139.063378 51 35130ft 478kts
07-Jun-20 21:46 -20.841728 139.183981 51 35120ft 480kts
07-Jun-20 21:47 -20.770584 139.305524 51 35144ft 483kts
07-Jun-20 21:48 -20.700186 139.425534 51 35170ft 484kts
07-Jun-20 21:49 -20.627180 139.548463 50 35173ft 484kts
07-Jun-20 21:50 -20.554447 139.669059 50 35157ft 483kts
07-Jun-20 21:51 -20.481901 139.789223 50 35133ft 481kts
07-Jun-20 21:52 -20.409605 139.908732 50 35120ft 480kts
07-Jun-20 21:53 -20.339011 140.025192 50 35116ft 481kts
07-Jun-20 21:54 -20.264451 140.147944 50 35115ft 481kts
07-Jun-20 21:55 -20.192014 140.266956 50 35123ft 482kts
07-Jun-20 21:56 -20.118750 140.387078 50 35128ft 482kts
07-Jun-20 21:57 -20.045732 140.506399 50 35128ft 482kts
07-Jun-20 21:58 -19.972556 140.625726 50 35123ft 482kts
07-Jun-20 21:59 -19.900171 140.743606 50 35111ft 480kts
07-Jun-20 22:00 -19.826951 140.862211 49 35102ft 480kts
07-Jun-20 22:01 -19.753941 140.980534 49 35093ft 482kts
07-Jun-20 22:02 -19.680445 141.099464 49 35122ft 483kts
07-Jun-20 22:03 -19.606557 141.218755 49 35125ft 484kts
07-Jun-20 22:04 -19.532631 141.337864 49 35133ft 484kts
07-Jun-20 22:05 -19.458580 141.456932 49 35131ft 484kts
07-Jun-20 22:06 -19.384369 141.576045 49 35126ft 484kts
07-Jun-20 22:07 -19.310305 141.694677 49 35054ft 483kts
07-Jun-20 22:08 -19.236279 141.813002 49 34988ft 482kts
07-Jun-20 22:09 -19.162390 141.930883 49 34983ft 481kts
07-Jun-20 22:10 -19.088342 142.048792 49 34998ft 482kts
07-Jun-20 22:11 -19.014106 142.166776 49 35019ft 483kts
07-Jun-20 22:12 -18.940060 142.284245 50 35061ft 479kts
07-Jun-20 22:13 -18.866628 142.400515 51 35085ft 472kts
07-Jun-20 22:14 -18.794244 142.514904 50 35024ft 467kts
07-Jun-20 22:15 -18.722406 142.628230 50 34980ft 465kts
07-Jun-20 22:16 -18.650863 142.740888 50 34994ft 463kts
07-Jun-20 22:17 -18.578933 142.853955 50 35001ft 464kts
07-Jun-20 22:18 -18.507127 142.966629 50 35058ft 464kts
07-Jun-20 22:19 -18.435209 143.079278 50 35065ft 463kts
07-Jun-20 22:20 -18.363495 143.191409 50 35061ft 462kts
07-Jun-20 22:21 -18.291657 143.303514 50 35040ft 462kts
07-Jun-20 22:22 -18.219682 143.415572 50 35047ft 462kts
07-Jun-20 22:23 -18.146879 143.528727 50 35047ft 462kts
07-Jun-20 22:24 -18.074799 143.640565 50 35039ft 462kts
07-Jun-20 22:25 -18.002902 143.751929 50 35060ft 461kts
07-Jun-20 22:26 -17.930947 143.863193 50 35053ft 461kts
07-Jun-20 22:28 -17.859103 143.974110 50 34697ft 457kts
07-Jun-20 22:29 -17.787945 144.083769 50 33774ft 451kts
07-Jun-20 22:30 -17.717848 144.191628 50 32522ft 442kts
07-Jun-20 22:31 -17.649230 144.297032 51 30558ft 434kts
07-Jun-20 22:32 -17.581972 144.400185 51 28597ft 426kts
07-Jun-20 22:33 -17.516002 144.501208 52 26640ft 418kts
07-Jun-20 22:34 -17.450546 144.601294 52 24671ft 410kts
07-Jun-20 22:35 -17.386876 144.698507 53 22734ft 400kts
07-Jun-20 22:36 -17.324767 144.793199 53 20829ft 390kts
07-Jun-20 22:37 -17.264169 144.885463 54 18960ft 379kts
07-Jun-20 22:38 -17.205583 144.974544 54 17151ft 367kts
07-Jun-20 22:39 -17.148448 145.061299 55 15388ft 356kts
07-Jun-20 22:40 -17.093300 145.144933 55 13689ft 344kts
07-Jun-20 22:41 -17.039921 145.225788 55 12052ft 332kts
07-Jun-20 22:42 -16.988744 145.303221 56 10494ft 319kts
07-Jun-20 22:43 -16.940095 145.376737 56 9268ft 300kts
07-Jun-20 22:43 -16.891915 145.426262 29 8009ft 296kts
07-Jun-20 22:45 -16.814221 145.470186 29 6576ft 257kts
07-Jun-20 22:46 -16.751831 145.505583 30 5263ft 249kts
07-Jun-20 22:47 -16.695967 145.539955 53 4742ft 198kts
07-Jun-20 22:48 -16.662872 145.582194 54 3752ft 185kts
07-Jun-20 22:48 -16.637003 145.618242 78 3718ft 183kts
07-Jun-20 22:50 -16.673687 145.656536 156 3720ft 172kts
07-Jun-20 22:50 -16.710101 145.673177 156 3382ft 171kts
07-Jun-20 22:51 -16.750289 145.691338 156 2459ft 130kts
07-Jun-20 22:52 -16.783247 145.706238 156 1798ft 133kts
07-Jun-20 22:53 -16.816929 145.721465 155 1087ft 131kts
07-Jun-20 22:54 -16.850239 145.736558 155 369ft 131kts
07-Jun-20 22:55 -16.879774 145.749864 158 16ft 54kts
07-Jun-20 22:56 -16.881547 145.752575 334 16ft 16kts
07-Jun-20 22:57 -16.874273 145.749666 24 16ft 25kts
07-Jun-20 22:58 -16.873232 145.752124 157 19ft 9kts

Navigation Log

Ident Type
Flight plan parsing failed, navigation log unavailable